Time;durP1;ratioP1;P1;durP2;ratioP2;P2;SDS_P1;SDS_P2;PMS_P1;PMS_P2;Temp;Humidity;BMP_temperature;BMP_pressure;BME280_temperature;BME280_humidity;BME280_pressure;Samples;Min_cycle;Max_cycle;Signal;HPM_P1;HPM_P2
2022/07/03 00:00:48;;;;;;;1.93;1.70;;;23.40;56.60;;;-142.21;78.84;112049.66;5113731;28;20275;-77
2022/07/03 00:03:15;;;;;;;1.53;1.43;;;23.40;56.80;;;-142.21;80.22;112049.66;5114024;28;20209;-76
2022/07/03 00:05:42;;;;;;;3.63;1.83;;;23.30;57.20;;;-142.21;81.26;112049.66;5113393;28;20613;-77
2022/07/03 00:08:10;;;;;;;1.53;1.40;;;23.30;57.70;;;-142.21;81.72;112049.66;5113712;28;20208;-77
2022/07/03 00:10:37;;;;;;;2.33;1.40;;;23.20;58.60;;;-142.21;83.02;112049.66;5077396;28;20256;-76
2022/07/03 00:13:04;;;;;;;3.33;1.80;;;23.10;58.20;;;-142.21;82.75;112049.66;5113827;28;20648;-76
2022/07/03 00:15:33;;;;;;;2.60;1.57;;;23.10;58.40;;;-142.21;83.65;112049.66;5113189;28;20256;-77
2022/07/03 00:18:00;;;;;;;1.70;1.53;;;23.00;58.50;;;-142.21;84.59;112049.66;5113731;28;20200;-78
2022/07/03 00:20:39;;;;;;;1.67;1.57;;;22.90;58.90;;;-142.21;85.00;112049.66;5113498;28;20254;-77
2022/07/03 00:23:11;;;;;;;2.00;1.60;;;22.90;59.30;;;-142.21;84.79;112049.66;5113489;28;20199;-76
2022/07/03 00:25:41;;;;;;;3.47;2.03;;;22.80;59.20;;;-142.21;86.04;112049.66;5090655;28;20279;-77
2022/07/03 00:28:09;;;;;;;2.30;1.80;;;22.80;59.70;;;-142.21;85.43;112049.66;5113647;28;20275;-77
2022/07/03 00:30:38;;;;;;;2.47;1.80;;;22.70;59.60;;;-142.21;85.91;112049.66;5112748;28;20545;-77
2022/07/03 00:33:07;;;;;;;2.20;2.00;;;22.50;59.70;;;-142.21;86.14;112049.66;5113785;28;20286;-77
2022/07/03 00:35:39;;;;;;;1.60;1.50;;;22.50;59.90;;;-142.21;86.77;112049.66;5112511;28;20231;-76
2022/07/03 00:38:06;;;;;;;1.73;1.63;;;22.40;61.10;;;-142.21;87.43;112049.66;5113393;28;20697;-76
2022/07/03 00:40:34;;;;;;;1.77;1.67;;;22.30;60.60;;;-142.21;88.55;112049.66;5112779;28;20643;-76
2022/07/03 00:43:04;;;;;;;2.70;1.87;;;22.20;61.30;;;-142.21;89.32;112049.66;5113039;28;20767;-77
2022/07/03 00:45:35;;;;;;;3.03;1.67;;;22.00;61.80;;;-142.21;89.56;112049.66;5061135;28;20618;-77
2022/07/03 00:48:09;;;;;;;2.03;1.57;;;21.90;62.40;;;-142.21;90.05;112049.66;5113435;28;20196;-77
2022/07/03 00:50:37;;;;;;;3.50;1.83;;;21.90;62.40;;;-142.21;90.57;112049.66;5112971;28;20301;-77
2022/07/03 00:53:04;;;;;;;1.57;1.47;;;21.80;62.70;;;-142.21;91.45;112049.66;5113015;28;20680;-76
2022/07/03 00:55:36;;;;;;;2.17;1.97;;;21.70;63.80;;;-142.21;91.84;112049.66;5113426;28;20231;-76
2022/07/03 00:58:03;;;;;;;1.57;1.47;;;21.70;63.20;;;-142.21;91.89;112049.66;5112992;28;20196;-77
2022/07/03 01:00:30;;;;;;;2.03;1.83;;;21.70;63.10;;;-142.21;92.33;112049.66;5113192;28;20735;-76
2022/07/03 01:03:07;;;;;;;2.60;1.60;;;21.80;63.30;;;-142.21;92.32;112049.66;5092475;28;20582;-76
2022/07/03 01:05:39;;;;;;;2.20;1.50;;;21.80;63.50;;;-142.21;92.44;112049.66;5110613;28;20226;-76
2022/07/03 01:08:20;;;;;;;2.70;1.70;;;21.80;63.50;;;-142.21;92.71;112049.66;5112899;28;20214;-76
2022/07/03 01:10:56;;;;;;;2.10;1.70;;;21.80;63.90;;;-142.21;92.59;112049.66;5079788;28;20292;-77
2022/07/03 01:13:38;;;;;;;3.40;1.47;;;21.80;63.60;;;-142.21;92.64;112049.66;5112998;28;20529;-77
2022/07/03 01:16:14;;;;;;;1.57;1.47;;;21.80;64.00;;;-142.21;92.77;112049.66;5112302;28;20271;-76
2022/07/03 01:18:50;;;;;;;2.20;2.00;;;21.70;63.90;;;-142.21;93.18;112049.66;5111582;28;20187;-76
2022/07/03 01:21:30;;;;;;;4.60;1.93;;;21.70;63.90;;;-142.21;93.55;112049.66;5112803;28;20196;-76
2022/07/03 01:24:38;;;;;;;1.73;1.60;;;21.70;64.20;;;-142.21;93.95;112049.66;5112352;28;20192;-76
2022/07/03 01:27:14;;;;;;;2.90;1.50;;;21.60;64.90;;;-142.21;93.83;112049.66;5113279;28;20276;-77
2022/07/03 01:29:57;;;;;;;4.87;1.90;;;21.60;64.40;;;-142.21;93.71;112049.66;5060948;28;20231;-76
2022/07/03 01:32:39;;;;;;;1.80;1.70;;;21.60;64.50;;;-142.21;93.98;112049.66;5092457;28;20279;-77
2022/07/03 01:35:09;;;;;;;2.70;2.17;;;21.60;64.80;;;-142.21;94.43;112049.66;5073314;28;20208;-75
2022/07/03 01:37:40;;;;;;;2.10;1.57;;;21.50;64.50;;;-142.21;94.80;112049.66;5112628;28;20286;-75
2022/07/03 01:40:09;;;;;;;1.67;1.57;;;21.50;64.70;;;-142.21;94.90;112049.66;5112658;28;20212;-77
2022/07/03 01:42:40;;;;;;;2.20;2.00;;;21.40;64.70;;;-142.21;95.13;112049.66;5059942;28;20216;-77
2022/07/03 01:45:12;;;;;;;2.33;1.70;;;21.40;65.20;;;-142.21;95.49;112049.66;5112391;28;20196;-75
2022/07/03 01:47:44;;;;;;;2.10;1.90;;;21.30;65.40;;;-142.21;95.93;112049.66;5115360;28;20228;-77
2022/07/03 01:50:14;;;;;;;2.10;1.87;;;21.30;65.70;;;-142.21;96.04;112049.66;5116427;28;20294;-76
2022/07/03 01:52:45;;;;;;;2.07;1.90;;;21.30;65.70;;;-142.21;96.13;112049.66;5106741;28;20195;-76
2022/07/03 01:55:15;;;;;;;2.50;1.90;;;21.20;65.90;;;-142.21;96.20;112049.66;5116617;28;20196;-76
2022/07/03 01:57:47;;;;;;;1.80;1.70;;;21.10;66.40;;;-142.21;96.63;112049.66;5115942;28;20223;-76
2022/07/03 02:00:18;;;;;;;2.83;1.80;;;21.10;66.40;;;-142.21;96.58;112049.66;5116139;28;20202;-75
2022/07/03 02:02:55;;;;;;;1.90;1.80;;;21.10;66.50;;;-142.21;96.72;112049.66;5098150;28;20241;-77
2022/07/03 02:05:32;;;;;;;1.90;1.80;;;21.10;66.80;;;-142.21;97.58;112049.66;5115787;28;20224;-77
2022/07/03 02:08:09;;;;;;;2.10;1.80;;;20.90;67.30;;;-142.21;98.14;112049.66;5115558;28;20275;-76
2022/07/03 02:10:46;;;;;;;3.20;2.10;;;20.80;67.70;;;-142.21;98.31;112049.66;5115764;28;20318;-76
2022/07/03 02:13:23;;;;;;;2.57;1.70;;;20.70;67.90;;;-142.21;98.49;112049.66;5116621;28;20192;-76
2022/07/03 02:15:52;;;;;;;4.57;2.10;;;20.70;68.20;;;-142.21;98.74;112049.66;5114852;28;20219;-76
2022/07/03 02:18:29;;;;;;;3.57;1.90;;;20.70;67.80;;;-142.21;98.50;112049.66;5116021;28;20206;-76
2022/07/03 02:21:08;;;;;;;4.17;2.00;;;20.80;67.90;;;-142.21;98.09;112049.66;5115361;28;20279;-78
2022/07/03 02:23:53;;;;;;;2.30;2.10;;;20.80;67.70;;;-142.21;97.73;112049.66;5115904;28;20279;-78
2022/07/03 02:26:30;;;;;;;2.20;2.00;;;20.80;67.40;;;-142.21;97.67;112049.66;5116264;28;20270;-78
2022/07/03 02:29:04;;;;;;;2.67;1.97;;;20.80;67.40;;;-142.21;97.78;112049.66;5115073;28;20735;-78
2022/07/03 02:31:40;;;;;;;2.93;2.10;;;20.80;67.60;;;-142.21;97.97;112049.66;5116495;28;20612;-78
2022/07/03 02:34:09;;;;;;;2.03;1.83;;;20.70;68.40;;;-142.21;98.16;112049.66;5095125;28;20192;-78
2022/07/03 02:36:38;;;;;;;2.27;2.07;;;20.70;67.60;;;-142.21;98.35;112049.66;5077700;28;20687;-78
2022/07/03 02:39:17;;;;;;;2.60;2.07;;;20.70;67.80;;;-142.21;98.12;112049.66;5095277;28;20197;-78
2022/07/03 02:41:53;;;;;;;2.20;1.80;;;20.60;68.00;;;-142.21;98.48;112049.66;5094582;28;20188;-78
2022/07/03 02:44:30;;;;;;;2.47;1.90;;;20.70;68.00;;;-142.21;98.96;112049.66;5100914;28;20242;-78
2022/07/03 02:47:07;;;;;;;2.20;1.77;;;20.70;68.00;;;-142.21;99.01;112049.66;5115024;28;20278;-78
2022/07/03 02:50:03;;;;;;;2.73;1.97;;;20.70;67.80;;;-142.21;98.86;112049.66;5115779;28;20274;-78
2022/07/03 02:52:44;;;;;;;1.60;1.50;;;20.80;68.20;;;-142.21;98.38;112049.66;5067396;28;20651;-79
2022/07/03 02:55:35;;;;;;;3.77;2.43;;;20.70;67.70;;;-142.21;97.52;112049.66;5115562;28;20212;-79
2022/07/03 02:58:28;;;;;;;2.13;1.77;;;20.80;67.70;;;-142.21;97.21;112049.66;5114671;28;20243;-77
2022/07/03 03:01:09;;;;;;;2.47;1.80;;;20.70;67.70;;;-142.21;97.05;112049.66;5115008;28;20203;-79
2022/07/03 03:03:39;;;;;;;3.70;1.83;;;20.70;67.70;;;-142.21;97.13;112049.66;5115569;28;20216;-78
2022/07/03 03:06:15;;;;;;;2.10;2.00;;;20.70;67.60;;;-142.21;96.91;112049.66;5115375;28;20629;-78
2022/07/03 03:08:48;;;;;;;3.37;2.00;;;20.60;67.70;;;-142.21;96.92;112049.66;5116151;28;20325;-78
2022/07/03 03:11:24;;;;;;;2.20;1.80;;;20.60;67.50;;;-142.21;97.02;112049.66;5122042;28;20299;-77
2022/07/03 03:13:56;;;;;;;2.03;1.83;;;20.70;67.60;;;-142.21;97.11;112049.66;5120741;28;20188;-77
2022/07/03 03:16:26;;;;;;;2.33;1.90;;;20.70;67.50;;;-142.21;96.83;112049.66;5114978;28;20188;-77
2022/07/03 03:18:54;;;;;;;2.10;1.83;;;20.70;67.30;;;-142.21;96.78;112049.66;5114168;28;20294;-78
2022/07/03 03:21:27;;;;;;;2.57;1.60;;;20.70;67.10;;;-142.21;96.80;112049.66;5115090;28;20284;-78
2022/07/03 03:23:57;;;;;;;1.93;1.73;;;20.80;67.20;;;-142.21;96.45;112049.66;5113978;28;20227;-78
2022/07/03 03:26:28;;;;;;;2.47;1.77;;;20.80;66.80;;;-142.21;96.76;112049.66;5114620;28;20242;-79
2022/07/03 03:28:55;;;;;;;1.63;1.53;;;20.90;67.10;;;-142.21;96.47;112049.66;5114251;28;20200;-78
2022/07/03 03:31:24;;;;;;;3.53;1.70;;;20.90;67.00;;;-142.21;96.76;112049.66;5114568;28;20220;-78
2022/07/03 03:33:53;;;;;;;2.17;1.97;;;20.80;66.90;;;-142.21;96.29;112049.66;5113924;28;20255;-78
2022/07/03 03:36:25;;;;;;;1.80;1.60;;;20.80;66.90;;;-142.21;96.49;112049.66;5114729;28;20207;-78
2022/07/03 03:38:53;;;;;;;2.50;2.00;;;20.80;67.00;;;-142.21;96.31;112049.66;5113914;28;20194;-78
2022/07/03 03:41:20;;;;;;;2.00;1.80;;;20.80;67.10;;;-142.21;96.38;112049.66;5113918;28;20249;-77
2022/07/03 03:43:47;;;;;;;1.80;1.70;;;20.70;67.10;;;-142.21;96.52;112049.66;5114171;28;20235;-79
2022/07/03 03:46:15;;;;;;;4.77;2.10;;;20.70;67.60;;;-142.21;96.73;112049.66;5114459;28;20711;-78
2022/07/03 03:48:44;;;;;;;1.70;1.60;;;20.70;67.60;;;-142.21;96.86;112049.66;5114202;28;20210;-79
2022/07/03 03:51:13;;;;;;;1.97;1.60;;;20.70;67.80;;;-142.21;97.02;112049.66;5114464;28;20259;-78
2022/07/03 03:53:41;;;;;;;2.03;1.70;;;20.60;67.90;;;-142.21;96.95;112049.66;5114047;28;20200;-78
2022/07/03 03:56:14;;;;;;;1.90;1.80;;;20.60;67.90;;;-142.21;97.23;112049.66;5113895;28;20211;-78
2022/07/03 03:58:43;;;;;;;2.10;1.90;;;20.60;68.10;;;-142.21;97.41;112049.66;5114454;28;20585;-78
2022/07/03 04:01:12;;;;;;;3.07;1.90;;;20.50;68.00;;;-142.21;97.65;112049.66;5113795;28;20291;-78
2022/07/03 04:03:40;;;;;;;3.77;2.20;;;20.50;68.10;;;-142.21;97.92;112049.66;5114002;28;20287;-77
2022/07/03 04:06:09;;;;;;;1.73;1.60;;;20.60;68.30;;;-142.21;98.45;112049.66;5093453;28;20216;-78
2022/07/03 04:08:37;;;;;;;3.20;2.10;;;20.50;68.40;;;-142.21;98.31;112049.66;5092861;28;20644;-79
2022/07/03 04:11:04;;;;;;;2.20;1.80;;;20.50;68.30;;;-142.21;98.38;112049.66;5112167;28;20311;-79
2022/07/03 04:13:32;;;;;;;2.47;2.00;;;20.60;68.30;;;-142.21;98.58;112049.66;5113573;28;20224;-78
2022/07/03 04:15:59;;;;;;;1.97;1.70;;;20.60;68.20;;;-142.21;98.62;112049.66;5095420;28;20291;-77
2022/07/03 04:18:26;;;;;;;1.90;1.80;;;20.70;69.00;;;-142.21;98.46;112049.66;5113676;28;20295;-79
2022/07/03 04:20:53;;;;;;;1.77;1.67;;;20.70;68.20;;;-142.21;98.57;112049.66;5113002;28;20290;-79
2022/07/03 04:23:22;;;;;;;2.27;2.00;;;20.70;68.30;;;-142.21;98.29;112049.66;5113953;28;20287;-79
2022/07/03 04:25:50;;;;;;;4.47;2.13;;;20.70;68.40;;;-142.21;98.28;112049.66;5112855;28;20261;-78
2022/07/03 04:28:17;;;;;;;1.70;1.60;;;20.80;68.30;;;-142.21;98.09;112049.66;5113510;28;20243;-79
2022/07/03 04:30:44;;;;;;;2.00;1.80;;;20.80;68.30;;;-142.21;98.16;112049.66;5112723;28;20706;-79
2022/07/03 04:33:11;;;;;;;2.20;1.97;;;20.90;68.30;;;-142.21;98.18;112049.66;5113336;28;20235;-78
2022/07/03 04:35:39;;;;;;;1.90;1.60;;;21.00;68.20;;;-142.21;98.09;112049.66;5113213;28;20247;-79
2022/07/03 04:38:06;;;;;;;2.67;1.87;;;21.00;67.90;;;-142.21;98.08;112049.66;5113179;28;20203;-79
2022/07/03 04:40:34;;;;;;;1.60;1.50;;;21.10;67.80;;;-142.21;98.03;112049.66;5112734;28;20214;-79
2022/07/03 04:43:01;;;;;;;2.80;1.80;;;21.20;67.70;;;-142.21;97.66;112049.66;5112759;28;20199;-78
2022/07/03 04:45:29;;;;;;;4.00;2.27;;;21.20;67.20;;;-142.21;98.25;112049.66;5113038;28;20240;-79
2022/07/03 04:47:56;;;;;;;3.23;2.00;;;21.30;67.60;;;-142.21;98.16;112049.66;5112861;28;20247;-79
2022/07/03 04:50:23;;;;;;;2.03;1.67;;;21.40;67.50;;;-142.21;97.97;112049.66;5113270;28;20208;-78
2022/07/03 04:52:50;;;;;;;2.13;1.93;;;21.40;67.30;;;-142.21;97.18;112049.66;5113061;28;20583;-78
2022/07/03 04:55:18;;;;;;;2.13;1.80;;;21.50;67.30;;;-142.21;97.07;112049.66;5113144;28;20209;-77
2022/07/03 04:57:46;;;;;;;2.10;1.83;;;21.50;67.30;;;-142.21;97.21;112049.66;5113059;28;20319;-78
2022/07/03 05:00:14;;;;;;;2.73;1.80;;;21.60;67.40;;;-142.21;97.05;112049.66;5113161;28;20294;-80
2022/07/03 05:02:41;;;;;;;3.07;1.80;;;21.70;67.40;;;-142.21;96.63;112049.66;5113046;28;20297;-78
2022/07/03 05:05:09;;;;;;;2.60;1.80;;;21.70;67.20;;;-142.21;96.61;112049.66;5113036;28;20239;-79
2022/07/03 05:07:36;;;;;;;2.57;2.17;;;21.80;67.40;;;-142.21;97.60;112049.66;5112964;28;20214;-78
2022/07/03 05:10:05;;;;;;;2.80;2.17;;;21.90;67.80;;;-142.21;97.83;112049.66;5111934;28;20340;-78
2022/07/03 05:12:32;;;;;;;2.10;1.90;;;21.90;68.30;;;-142.21;98.23;112049.66;5112833;28;20224;-77
2022/07/03 05:15:01;;;;;;;2.13;1.93;;;22.00;68.20;;;-142.21;97.63;112049.66;5112535;28;20203;-78
2022/07/03 05:17:28;;;;;;;2.40;2.00;;;22.10;68.10;;;-142.21;97.10;112049.66;5112567;28;20242;-78
2022/07/03 05:22:36;;;;;;;2.47;2.27;;;22.20;67.20;;;-142.21;96.46;112049.66;5115054;28;20191;-78
2022/07/03 05:25:04;;;;;;;2.40;2.20;;;22.20;67.00;;;-142.21;95.39;112049.66;5116541;28;20648;-78
2022/07/03 05:27:31;;;;;;;2.43;2.23;;;22.30;66.90;;;-142.21;95.32;112049.66;5116698;28;20290;-79
2022/07/03 05:30:00;;;;;;;2.80;2.20;;;22.30;66.70;;;-142.21;95.36;112049.66;5116313;28;20207;-78
2022/07/03 05:32:27;;;;;;;2.43;2.13;;;22.40;66.90;;;-142.21;95.22;112049.66;5116487;28;20227;-78
2022/07/03 05:34:55;;;;;;;3.03;2.10;;;22.50;66.70;;;-142.21;94.44;112049.66;5116340;28;20210;-77
2022/07/03 05:37:22;;;;;;;3.63;1.90;;;22.50;66.50;;;-142.21;94.59;112049.66;5116433;28;20316;-79
2022/07/03 05:39:49;;;;;;;2.33;1.90;;;22.70;67.20;;;-142.21;94.05;112049.66;5096151;28;20200;-78
2022/07/03 05:42:16;;;;;;;2.27;1.67;;;22.60;66.00;;;-142.21;93.78;112049.66;5096381;28;20204;-78
2022/07/03 05:44:44;;;;;;;2.30;2.10;;;22.90;65.90;;;-142.21;93.20;112049.66;5096405;28;20296;-78
2022/07/03 05:47:12;;;;;;;2.37;1.70;;;22.90;65.30;;;-142.21;92.78;112049.66;5095702;28;20340;-78
2022/07/03 05:49:40;;;;;;;2.00;1.80;;;23.10;65.40;;;-142.21;93.15;112049.66;5096304;28;20250;-77
2022/07/03 05:52:08;;;;;;;1.87;1.70;;;23.20;65.40;;;-142.21;92.34;112049.66;5094957;28;20264;-78
2022/07/03 05:54:35;;;;;;;2.10;1.60;;;23.30;65.20;;;-142.21;91.17;112049.66;5095988;28;20402;-78
2022/07/03 05:57:02;;;;;;;1.83;1.50;;;23.30;64.50;;;-142.21;89.90;112049.66;5107720;28;20292;-78
2022/07/03 05:59:29;;;;;;;1.50;1.40;;;23.40;64.10;;;-142.21;89.44;112049.66;5116105;28;20254;-77
2022/07/03 06:01:57;;;;;;;1.80;1.70;;;23.40;63.70;;;-142.21;89.51;112049.66;5115920;28;20280;-77
2022/07/03 06:04:25;;;;;;;1.60;1.50;;;23.50;63.80;;;-142.21;88.48;112049.66;5116257;28;20200;-80
2022/07/03 06:06:54;;;;;;;1.60;1.50;;;23.60;63.30;;;-142.21;88.19;112049.66;5115253;28;20252;-79
2022/07/03 06:09:21;;;;;;;1.67;1.57;;;23.70;63.20;;;-142.21;87.68;112049.66;5115872;28;20760;-79
2022/07/03 06:11:48;;;;;;;1.63;1.50;;;23.80;63.00;;;-142.21;86.88;112049.66;5115986;28;20275;-79
2022/07/03 06:14:16;;;;;;;1.73;1.60;;;23.80;62.50;;;-142.21;85.68;112049.66;5116400;28;20240;-78
2022/07/03 06:16:43;;;;;;;2.77;1.47;;;23.90;62.10;;;-142.21;84.42;112049.66;5115848;28;20211;-77
2022/07/03 06:19:10;;;;;;;1.80;1.70;;;24.10;61.40;;;-142.21;84.08;112049.66;5115318;28;20204;-76
2022/07/03 06:21:39;;;;;;;2.27;2.07;;;24.10;61.10;;;-142.21;83.23;112049.66;5115793;28;20208;-78
2022/07/03 06:24:10;;;;;;;1.70;1.37;;;24.10;60.80;;;-142.21;82.88;112049.66;5115554;28;20293;-78
2022/07/03 06:26:37;;;;;;;1.47;1.37;;;24.20;61.00;;;-142.21;83.86;112049.66;5115677;28;20256;-78
2022/07/03 06:29:04;;;;;;;1.80;1.70;;;24.30;61.00;;;-142.21;80.71;112049.66;5115734;28;20235;-76
2022/07/03 06:31:32;;;;;;;1.67;1.57;;;24.40;60.00;;;-142.21;79.19;112049.66;5115532;28;20780;-78
2022/07/03 06:33:59;;;;;;;1.60;1.50;;;24.40;59.60;;;-142.21;77.40;112049.66;5115144;28;20214;-77
2022/07/03 06:36:26;;;;;;;1.60;1.50;;;24.50;59.20;;;-142.21;76.84;112049.66;5116936;28;20235;-77
2022/07/03 06:38:55;;;;;;;1.67;1.57;;;24.60;59.00;;;-142.21;76.82;112049.66;5103474;28;20204;-77
2022/07/03 06:41:22;;;;;;;1.50;1.40;;;24.70;58.70;;;-142.21;77.90;112049.66;5111492;28;20204;-79
2022/07/03 06:43:50;;;;;;;2.20;1.40;;;24.70;59.00;;;-142.21;79.19;112049.66;5131054;28;20200;-79
2022/07/03 06:46:17;;;;;;;2.30;1.40;;;24.90;59.00;;;-142.21;75.76;112049.66;5111371;28;20208;-76
2022/07/03 06:48:44;;;;;;;1.73;1.63;;;25.00;58.10;;;-142.21;73.78;112049.66;5095045;28;20201;-78
2022/07/03 06:51:11;;;;;;;3.53;1.50;;;25.00;57.40;;;-142.21;72.42;112049.66;5094286;28;20575;-77
2022/07/03 06:53:39;;;;;;;3.63;1.30;;;25.00;57.30;;;-142.21;72.86;112049.66;5095138;28;20337;-78
2022/07/03 06:56:07;;;;;;;1.70;1.60;;;25.10;57.40;;;-142.21;72.13;112049.66;5094719;28;20628;-78
2022/07/03 06:58:37;;;;;;;1.10;1.10;;;25.10;57.10;;;-142.21;70.75;112049.66;5102596;28;20227;-78
2022/07/03 07:01:05;;;;;;;1.50;1.40;;;25.10;56.70;;;-142.21;68.82;112049.66;5114459;28;20251;-75
2022/07/03 07:03:32;;;;;;;1.47;1.33;;;25.10;56.40;;;-142.21;67.95;112049.66;5115015;28;20235;-77
2022/07/03 07:05:59;;;;;;;1.60;1.50;;;25.20;56.10;;;-142.21;68.13;112049.66;5114175;28;20262;-76
2022/07/03 07:08:27;;;;;;;1.97;1.50;;;25.20;56.10;;;-142.21;68.70;112049.66;5114537;28;20264;-77
2022/07/03 07:10:54;;;;;;;1.60;1.50;;;25.30;56.40;;;-142.21;67.68;112049.66;5114877;28;20287;-77
2022/07/03 07:13:23;;;;;;;1.40;1.30;;;25.40;56.30;;;-142.21;67.24;112049.66;5114560;28;20258;-77
2022/07/03 07:15:51;;;;;;;1.30;1.20;;;25.50;55.70;;;-142.21;62.01;112049.66;5115250;28;20242;-78
2022/07/03 07:18:18;;;;;;;1.80;1.27;;;25.60;54.50;;;-142.21;61.09;112049.66;5114318;28;20668;-76
2022/07/03 07:20:45;;;;;;;1.60;1.27;;;25.70;53.90;;;-142.21;59.63;112049.66;5114369;28;20207;-76
2022/07/03 07:23:12;;;;;;;1.33;1.23;;;25.70;53.30;;;-142.21;59.67;112049.66;5114347;28;20199;-78
2022/07/03 07:25:41;;;;;;;1.73;1.63;;;25.80;53.60;;;-142.21;59.46;112049.66;5114625;28;20656;-77
2022/07/03 07:28:08;;;;;;;1.23;1.23;;;25.90;54.00;;;-142.21;56.61;112049.66;5114620;28;20207;-77
2022/07/03 07:30:38;;;;;;;1.60;1.50;;;26.00;53.00;;;-142.21;58.19;112049.66;5114560;28;20201;-80
2022/07/03 07:33:05;;;;;;;2.03;1.33;;;26.00;53.00;;;-142.21;57.93;112049.66;5113719;28;20224;-80
2022/07/03 07:35:33;;;;;;;1.40;1.30;;;26.10;52.90;;;-142.21;59.08;112049.66;5114637;28;20200;-81
2022/07/03 07:38:00;;;;;;;1.70;1.40;;;26.30;53.20;;;-142.21;60.26;112049.66;5114059;28;20736;-79
2022/07/03 07:40:27;;;;;;;1.33;1.23;;;26.40;53.30;;;-142.21;60.27;112049.66;5114319;28;20212;-85
2022/07/03 07:42:55;;;;;;;1.03;1.03;;;26.50;53.00;;;-142.21;58.98;112049.66;5114105;28;20200;-81
2022/07/03 07:45:22;;;;;;;1.93;1.17;;;26.50;52.70;;;-142.21;57.24;112049.66;5113419;28;20204;-77
2022/07/03 07:47:50;;;;;;;1.13;1.03;;;26.60;52.20;;;-142.21;57.43;112049.66;5114342;28;20235;-80
2022/07/03 07:50:17;;;;;;;1.97;1.37;;;26.60;52.20;;;-142.21;56.30;112049.66;5113488;28;20243;-77
2022/07/03 07:52:45;;;;;;;2.10;1.40;;;26.70;52.00;;;-142.21;54.76;112049.66;5113785;28;20266;-81
2022/07/03 07:55:12;;;;;;;1.30;1.20;;;26.80;51.40;;;-142.21;54.89;112049.66;5113354;28;20231;-78
2022/07/03 07:57:41;;;;;;;1.50;1.40;;;26.90;51.60;;;-142.21;52.99;112049.66;5113738;28;20203;-76
2022/07/03 08:00:12;;;;;;;1.37;1.27;;;26.90;50.90;;;-142.21;53.76;112049.66;5113377;28;20246;-79
2022/07/03 08:05:38;;;;;;;1.37;1.27;;;27.10;50.10;;;-142.21;50.76;112049.66;5113275;28;20207;-81
2022/07/03 08:08:10;;;;;;;2.47;1.30;;;27.10;49.80;;;-142.21;50.99;112049.66;5112842;28;20185;-77
2022/07/03 08:10:41;;;;;;;1.00;0.90;;;27.10;50.10;;;-142.21;50.85;112049.66;5113822;28;20596;-79
2022/07/03 08:13:09;;;;;;;1.77;1.17;;;27.30;50.20;;;-142.21;49.77;112049.66;5112696;28;20281;-77
2022/07/03 08:15:37;;;;;;;1.10;1.07;;;27.40;49.50;;;-142.21;49.71;112049.66;5107325;28;20216;-79
2022/07/03 08:18:05;;;;;;;2.90;1.30;;;27.40;49.40;;;-142.21;49.77;112049.66;5111822;28;20236;-79
2022/07/03 08:20:34;;;;;;;1.07;1.07;;;27.50;49.60;;;-142.21;48.72;112049.66;5113322;28;20259;-78
2022/07/03 08:23:03;;;;;;;2.07;1.20;;;27.70;48.90;;;-142.21;48.40;112049.66;5111801;28;20217;-81
2022/07/03 08:25:30;;;;;;;1.20;1.10;;;27.70;48.80;;;-142.21;46.83;112049.66;5113396;28;20210;-80
2022/07/03 08:27:58;;;;;;;1.30;1.20;;;27.70;48.10;;;-142.21;46.59;112049.66;5112999;28;20622;-79
2022/07/03 08:30:26;;;;;;;1.00;1.00;;;27.80;48.20;;;-142.21;45.52;112049.66;5113486;28;20197;-79
2022/07/03 08:32:57;;;;;;;3.63;1.40;;;28.00;47.40;;;-142.21;45.83;112049.66;5112779;28;20313;-77
2022/07/03 08:35:25;;;;;;;1.20;1.13;;;28.00;47.80;;;-142.21;47.28;112049.66;5113364;28;20620;-78
2022/07/03 08:37:54;;;;;;;1.40;1.30;;;28.10;48.30;;;-142.21;46.05;112049.66;5113336;28;20207;-80
2022/07/03 08:40:22;;;;;;;1.30;1.20;;;28.20;47.20;;;-142.21;44.90;112049.66;5112314;28;20655;-79
2022/07/03 08:42:54;;;;;;;1.00;1.00;;;28.20;46.60;;;-142.21;45.22;112049.66;5113312;28;20203;-78
2022/07/03 08:45:24;;;;;;;1.50;1.40;;;28.20;47.20;;;-142.21;46.04;112049.66;5112547;28;20193;-79
2022/07/03 08:47:55;;;;;;;2.10;1.60;;;28.20;47.20;;;-142.21;45.93;112049.66;5113056;28;20206;-80
2022/07/03 08:50:23;;;;;;;5.00;1.53;;;28.20;47.60;;;-142.21;45.94;112049.66;5112123;28;20277;-78
2022/07/03 08:52:50;;;;;;;1.07;1.00;;;28.20;47.70;;;-142.21;47.15;112049.66;5113116;28;20229;-77
2022/07/03 08:55:20;;;;;;;1.10;1.10;;;28.20;48.30;;;-142.21;45.64;112049.66;5112239;28;20234;-79
2022/07/03 08:57:49;;;;;;;1.80;1.20;;;28.30;47.50;;;-142.21;45.46;112049.66;5112765;28;20248;-80
2022/07/03 09:00:19;;;;;;;1.67;1.20;;;28.30;47.30;;;-142.21;44.81;112049.66;5111883;28;20248;-78
2022/07/03 09:02:50;;;;;;;1.40;1.30;;;28.40;47.40;;;-142.21;43.53;112049.66;5112756;28;20709;-77
2022/07/03 09:05:19;;;;;;;1.17;0.90;;;28.50;46.70;;;-142.21;41.16;112049.66;5112334;28;20247;-77
2022/07/03 09:07:47;;;;;;;0.90;0.90;;;28.60;45.20;;;-142.21;41.08;112049.66;5112791;28;20335;-78
2022/07/03 09:10:18;;;;;;;1.13;1.03;;;28.60;44.80;;;-142.21;40.62;112049.66;5112314;28;20242;-79
2022/07/03 09:12:49;;;;;;;2.10;1.27;;;28.60;44.50;;;-142.21;41.05;112049.66;5091962;28;20928;-78
2022/07/03 09:15:17;;;;;;;1.40;1.10;;;28.80;44.60;;;-142.21;38.62;112049.66;5091929;28;20195;-77
2022/07/03 09:17:59;;;;;;;3.17;1.40;;;28.80;42.30;;;-142.21;38.37;112049.66;5092418;28;20250;-80
2022/07/03 09:20:32;;;;;;;1.47;1.20;;;28.80;42.40;;;-142.21;38.14;112049.66;5092067;28;20656;-75
2022/07/03 09:23:16;;;;;;;1.33;1.00;;;28.90;42.50;;;-142.21;37.99;112049.66;5100025;28;20305;-78
2022/07/03 09:25:57;;;;;;;2.47;0.87;;;29.10;42.40;;;-142.21;38.06;112049.66;5096159;28;20242;-76
2022/07/03 09:28:44;;;;;;;1.10;0.93;;;29.20;42.20;;;-142.21;37.78;112049.66;5091783;28;20195;-77
2022/07/03 09:31:14;;;;;;;1.73;1.20;;;29.30;41.60;;;-142.21;39.05;112049.66;5110669;28;20638;-79
2022/07/03 09:33:56;;;;;;;1.17;1.07;;;29.40;43.30;;;-142.21;38.85;112049.66;5112587;28;20226;-78
2022/07/03 09:36:39;;;;;;;1.37;1.27;;;29.60;42.50;;;-142.21;38.35;112049.66;5112275;28;20194;-79
2022/07/03 09:39:30;;;;;;;1.80;1.13;;;29.60;42.50;;;-142.21;38.24;112049.66;5112298;28;20237;-80
2022/07/03 09:42:02;;;;;;;1.47;1.10;;;29.60;42.00;;;-142.21;38.46;112049.66;5107433;28;20289;-78
2022/07/03 09:44:33;;;;;;;2.13;1.10;;;29.50;42.40;;;-142.21;39.37;112049.66;5112072;28;20255;-79
2022/07/03 09:47:09;;;;;;;1.83;1.03;;;29.60;42.90;;;-142.21;37.71;112049.66;5112370;28;20251;-78
2022/07/03 09:49:54;;;;;;;1.67;1.10;;;29.70;42.00;;;-142.21;38.67;112049.66;5112605;28;20229;-80
2022/07/03 09:52:37;;;;;;;1.67;1.47;;;29.80;42.40;;;-142.21;38.81;112049.66;5111860;28;20218;-77
2022/07/03 09:55:16;;;;;;;1.30;0.93;;;30.00;42.40;;;-142.21;37.96;112049.66;5111701;28;20242;-76
2022/07/03 09:57:46;;;;;;;2.30;1.10;;;30.10;42.00;;;-142.21;37.89;112049.66;5111941;28;20682;-76
2022/07/03 10:00:19;;;;;;;2.17;1.27;;;30.10;41.70;;;-142.21;37.65;112049.66;5111848;28;20221;-77
2022/07/03 10:03:03;;;;;;;1.40;1.30;;;30.10;41.50;;;-142.21;37.58;112049.66;5112381;28;20184;-76
2022/07/03 10:05:35;;;;;;;1.13;1.03;;;30.10;41.40;;;-142.21;37.44;112049.66;5112484;28;20255;-75
2022/07/03 10:08:04;;;;;;;1.03;1.00;;;30.00;41.40;;;-142.21;36.49;112049.66;5114842;28;20245;-76
2022/07/03 10:10:33;;;;;;;0.90;0.90;;;30.00;40.50;;;-142.21;35.78;112049.66;5115913;28;20222;-78
2022/07/03 10:13:01;;;;;;;0.93;0.87;;;30.00;41.20;;;-142.21;35.83;112049.66;5117704;28;20324;-78
2022/07/03 10:15:32;;;;;;;0.80;0.80;;;30.00;40.70;;;-142.21;35.07;112049.66;5118718;28;20204;-79
2022/07/03 10:18:01;;;;;;;1.47;1.17;;;30.00;39.80;;;-142.21;35.74;112049.66;5117576;28;20286;-78
2022/07/03 10:20:32;;;;;;;0.73;0.73;;;30.10;40.40;;;-142.21;35.21;112049.66;5115394;28;20207;-78